createdAt,value
2019-01-03T00:01:39.548Z,8.5
2019-01-03T00:07:02.552Z,9.9
2019-01-03T00:12:25.215Z,7.3
2019-01-03T00:17:47.876Z,5.6
2019-01-03T00:23:10.649Z,5.7
2019-01-03T00:28:35.945Z,4.4
2019-01-03T00:33:59.658Z,3.8
2019-01-03T00:39:23.678Z,3.8
2019-01-03T00:44:48.036Z,4.6
2019-01-03T00:50:11.836Z,4
2019-01-03T00:55:36.400Z,4.7
2019-01-03T01:01:00.025Z,4.2
2019-01-03T01:06:22.630Z,4.5
2019-01-03T01:11:46.098Z,4
2019-01-03T01:17:08.898Z,4
2019-01-03T01:22:45.088Z,3.9
2019-01-03T01:28:08.251Z,4.5
2019-01-03T01:33:31.629Z,4.2
2019-01-03T01:38:55.114Z,4.4
2019-01-03T01:44:20.148Z,3.6
2019-01-03T01:49:42.818Z,3.8
2019-01-03T01:55:07.124Z,3.6
2019-01-03T02:00:30.903Z,3.5
2019-01-03T02:05:55.023Z,3.5
2019-01-03T02:11:19.172Z,3.4
2019-01-03T02:16:43.499Z,3.5
2019-01-03T02:22:10.833Z,3.3
2019-01-03T02:27:35.200Z,3.2
2019-01-03T02:32:59.359Z,4
2019-01-03T02:38:22.796Z,4.3
2019-01-03T02:43:46.397Z,4.6
2019-01-03T02:49:10.291Z,4.1
2019-01-03T02:54:33.988Z,4.2
2019-01-03T02:59:59.486Z,3.4
2019-01-03T03:05:24.252Z,3.2
2019-01-03T03:10:48.652Z,3.2
2019-01-03T03:16:12.460Z,2.8
2019-01-03T03:21:35.540Z,2.6
2019-01-03T03:26:58.470Z,2.9
2019-01-03T03:32:21.383Z,3.5
2019-01-03T03:37:44.159Z,4.4
2019-01-03T03:43:07.474Z,3.9
2019-01-03T03:48:31.441Z,3.9
2019-01-03T03:53:56.994Z,3.5
2019-01-03T03:59:20.667Z,4.1
2019-01-03T04:04:43.538Z,4
2019-01-03T04:10:07.685Z,3.7
2019-01-03T04:15:30.562Z,3.3
2019-01-03T04:20:53.212Z,2.7
2019-01-03T04:26:15.886Z,3.5
2019-01-03T04:31:38.758Z,3
2019-01-03T04:37:01.771Z,2.9
2019-01-03T04:42:24.559Z,2.6
2019-01-03T04:47:48.978Z,3.4
2019-01-03T04:53:13.767Z,3.7
2019-01-03T04:58:36.954Z,3.7
2019-01-03T05:03:59.967Z,3.6
2019-01-03T05:09:23.088Z,3.7
2019-01-03T05:14:45.749Z,3.7
2019-01-03T05:20:10.616Z,3.2
2019-01-03T05:25:33.330Z,3.8
2019-01-03T05:30:58.465Z,2.9
2019-01-03T05:36:21.939Z,2.8
2019-01-03T05:41:45.069Z,3.2
2019-01-03T05:47:08.221Z,3.2
2019-01-03T05:52:31.579Z,2.8
2019-01-03T05:57:54.512Z,3
2019-01-03T06:03:17.321Z,3.2
2019-01-03T06:08:39.988Z,3.9
2019-01-03T06:14:04.015Z,4.4
2019-01-03T06:19:28.883Z,5.9
2019-01-03T06:24:51.811Z,5.3
2019-01-03T06:30:14.597Z,5.7
2019-01-03T06:35:37.261Z,6.4
2019-01-03T06:41:00.721Z,6
2019-01-03T06:46:23.623Z,7.2
2019-01-03T06:51:47.023Z,7.7
2019-01-03T06:57:10.651Z,8.2
2019-01-03T07:02:33.273Z,8.8
2019-01-03T07:07:56.201Z,8.2
2019-01-03T07:13:18.962Z,8.4
2019-01-03T07:18:41.780Z,9.6
2019-01-03T07:24:07.739Z,10.5
2019-01-03T07:29:30.490Z,10.9
2019-01-03T07:34:53.124Z,10.2
2019-01-03T07:40:15.906Z,9.5
2019-01-03T07:45:40.619Z,9.7
2019-01-03T07:51:03.210Z,10.1
2019-01-03T07:56:26.226Z,9.8
2019-01-03T08:02:06.730Z,8.3
2019-01-03T08:07:39.613Z,7.8
2019-01-03T08:13:03.117Z,8.1
2019-01-03T08:18:25.915Z,7.5
2019-01-03T08:23:48.599Z,8
2019-01-03T08:29:20.206Z,7.2
2019-01-03T08:34:43.986Z,6.8
2019-01-03T08:40:07.676Z,6.9
2019-01-03T08:45:39.579Z,6
2019-01-03T08:51:13.171Z,5.7
2019-01-03T08:56:44.821Z,5.5
2019-01-03T09:02:18.736Z,4.9
2019-01-03T09:07:42.489Z,4.7
2019-01-03T09:13:05.577Z,4.8
2019-01-03T09:18:28.229Z,4.8
2019-01-03T09:23:52.314Z,5.4
2019-01-03T09:29:15.838Z,4.8
2019-01-03T09:34:38.638Z,6.4
2019-01-03T09:40:01.509Z,7.3
2019-01-03T09:45:24.330Z,6.9
2019-01-03T09:50:47.134Z,6.8
2019-01-03T09:56:09.985Z,6.1
2019-01-03T10:01:32.757Z,5.7
2019-01-03T10:06:57.147Z,5.4
2019-01-03T10:12:21.127Z,4.7
2019-01-03T10:17:43.887Z,4.2
2019-01-03T10:23:06.747Z,3.8
2019-01-03T10:28:29.753Z,3.7
2019-01-03T10:33:53.783Z,3.6
2019-01-03T10:39:16.594Z,2.9
2019-01-03T10:44:40.037Z,3
2019-01-03T10:50:03.311Z,4.3
2019-01-03T10:55:26.128Z,4.8
2019-01-03T11:00:48.968Z,5.6
2019-01-03T11:06:12.153Z,5.9
2019-01-03T11:11:35.288Z,6.1
2019-01-03T11:16:59.102Z,5.6
2019-01-03T11:22:22.030Z,5.7
2019-01-03T11:27:44.902Z,6.2
2019-01-03T11:33:07.693Z,4.8
2019-01-03T11:38:30.385Z,5.1
2019-01-03T11:43:53.522Z,5.7
2019-01-03T11:49:16.175Z,5.7
2019-01-03T11:54:38.916Z,5.9
2019-01-03T12:00:01.040Z,5
2019-01-03T12:05:25.299Z,4.7
2019-01-03T12:10:49.106Z,4.7
2019-01-03T12:16:12.830Z,6.6
2019-01-03T12:21:35.555Z,3.7
2019-01-03T12:26:58.328Z,2.8
2019-01-03T12:32:22.784Z,3.3
2019-01-03T12:37:48.650Z,3.3
2019-01-03T12:43:11.735Z,3.1
2019-01-03T12:48:35.684Z,3.5
2019-01-03T12:53:58.406Z,2.5
2019-01-03T12:59:21.248Z,2.5
2019-01-03T13:04:43.983Z,2.8
2019-01-03T13:10:06.936Z,2.9
2019-01-03T13:15:40.321Z,2.6
2019-01-03T13:21:11.996Z,2.5
2019-01-03T13:26:49.432Z,2.5
2019-01-03T13:32:24.226Z,2.8
2019-01-03T13:37:58.936Z,3.2
2019-01-03T13:43:44.051Z,2.9
2019-01-03T13:49:17.045Z,3
2019-01-03T13:55:11.903Z,2.6
2019-01-03T14:00:34.324Z,2.9
2019-01-03T14:05:58.248Z,3.3
2019-01-03T14:11:21.669Z,3.2
2019-01-03T14:16:46.253Z,2.9
2019-01-03T14:22:21.611Z,3.3
2019-01-03T14:27:45.307Z,3.4
2019-01-03T14:33:17.675Z,3.6
2019-01-03T14:38:51.087Z,3.7
2019-01-03T14:44:14.551Z,3.6
2019-01-03T14:49:37.189Z,3.9
2019-01-03T14:55:01.668Z,3.9
2019-01-03T15:00:34.514Z,3.5
2019-01-03T15:06:06.838Z,3.5
2019-01-03T15:11:39.711Z,3.5
2019-01-03T15:17:30.364Z,3.6
2019-01-03T15:22:52.980Z,4.3
2019-01-03T15:28:16.992Z,3.5
2019-01-03T15:33:52.333Z,3.2
2019-01-03T15:39:26.429Z,2.9
2019-01-03T15:45:21.614Z,3
2019-01-03T15:50:45.504Z,3.6
2019-01-03T15:56:10.062Z,2.8
2019-01-03T16:01:42.304Z,2.9
2019-01-03T16:07:17.533Z,3.7
2019-01-03T16:12:49.137Z,3.4
2019-01-03T16:18:21.839Z,2.6
2019-01-03T16:23:46.346Z,2.6
2019-01-03T16:29:09.110Z,2.7
2019-01-03T16:34:42.998Z,2.9
2019-01-03T16:40:18.570Z,2.5
2019-01-03T16:45:54.114Z,2.7
2019-01-03T16:51:37.294Z,3.3
2019-01-03T16:57:08.817Z,3
2019-01-03T17:02:41.802Z,3.1
2019-01-03T17:08:07.097Z,3.1
2019-01-03T17:13:29.742Z,3.4
2019-01-03T17:19:05.618Z,3.5
2019-01-03T17:24:37.436Z,3.9
2019-01-03T17:30:11.043Z,3.9
2019-01-03T17:35:38.439Z,4
2019-01-03T17:41:05.134Z,5.1
2019-01-03T17:46:38.150Z,6.9
2019-01-03T17:52:02.310Z,5.5
2019-01-03T17:57:25.196Z,5.6
2019-01-03T18:02:47.929Z,6.5
2019-01-03T18:08:12.098Z,6.4
2019-01-03T18:13:36.616Z,5.8
2019-01-03T18:19:10.875Z,5.8
2019-01-03T18:24:44.073Z,7.3
2019-01-03T18:30:17.903Z,9.8
2019-01-03T18:35:51.066Z,7.1
2019-01-03T18:41:15.567Z,9.8
2019-01-03T18:46:50.877Z,9
2019-01-03T18:52:15.415Z,8.6
2019-01-03T18:57:50.909Z,10.5
2019-01-03T19:03:13.599Z,9.7
2019-01-03T19:08:48.097Z,10.2
2019-01-03T19:14:20.971Z,11.3
2019-01-03T19:19:54.899Z,10.6
2019-01-03T19:25:28.358Z,10.2
2019-01-03T19:31:01.755Z,9.3
2019-01-03T19:36:35.325Z,11.4
2019-01-03T19:42:08.225Z,11.6
2019-01-03T19:47:42.279Z,11.7
2019-01-03T19:53:09.493Z,8.5
2019-01-03T19:58:43.132Z,9.6
2019-01-03T20:04:16.965Z,10.5
2019-01-03T20:09:50.891Z,9.2
2019-01-03T20:15:23.450Z,9.1
2019-01-03T20:20:56.117Z,12.9
2019-01-03T20:26:31.042Z,10.7
2019-01-03T20:32:03.940Z,10.9
2019-01-03T20:37:35.844Z,13
2019-01-03T20:43:07.730Z,8.4
2019-01-03T20:48:32.155Z,10.1
2019-01-03T20:54:08.069Z,11.9
2019-01-03T21:00:11.897Z,11.6
2019-01-03T21:05:44.422Z,11.1
2019-01-03T21:11:20.934Z,12.2
2019-01-03T21:16:54.279Z,11.7
2019-01-03T21:22:26.461Z,11.8
2019-01-03T21:27:50.064Z,12.5
2019-01-03T21:33:17.078Z,10.9
2019-01-03T21:38:41.477Z,12.4
2019-01-03T21:44:06.776Z,13.5
2019-01-03T21:49:32.921Z,14.9
2019-01-03T21:54:58.182Z,14.3
2019-01-03T22:00:23.132Z,17.799999
2019-01-03T22:05:51.578Z,15.2
2019-01-03T22:11:16.290Z,21.5
2019-01-03T22:16:41.871Z,28
2019-01-03T22:22:43.939Z,19.299999
2019-01-03T22:28:16.433Z,24.700001
2019-01-03T22:33:39.153Z,26.4
2019-01-03T22:39:12.771Z,47.799999
2019-01-03T22:44:48.045Z,50
2019-01-03T22:50:21.508Z,70.900002
2019-01-03T22:55:57.455Z,64.400002
2019-01-03T23:01:55.066Z,51.900002
2019-01-03T23:07:27.510Z,45.099998
2019-01-03T23:13:00.353Z,50.400002
2019-01-03T23:18:36.820Z,42.599998
2019-01-03T23:24:12.551Z,39.400002
2019-01-03T23:29:49.292Z,60.599998
2019-01-03T23:35:21.261Z,38.299999
2019-01-03T23:40:45.504Z,43.200001
2019-01-03T23:46:08.190Z,58.099998
2019-01-03T23:51:31.859Z,61.400002
2019-01-03T23:56:55.678Z,57.799999
